Jaigarh — HOPB — position and weather

sailwx.info

Track history (hours):
 
Tides and Currents Weather Stations Pressure Air Temp Water Temp Dewpoint Dewpoint Depression Visibility Wind Speed Wind Dir Waves Ship Positions

Jaigarh

Last reported at 2017-Oct-07 20:04 UTC. Time now 2017-Oct-18 15:12 UTC.
Position N 48°34' W 126°39'.
Warning: this ship's position is 10 days out of date.

Length 229 m; draft 12.5 m.

Type: Cargo ship. MMSI: 356277000.

Date/timePositionNaut miles runAvg speedWind from/ knotsBaromVisibWave heightAir tempDewpointWater temp
2017-Oct-07 20:04N 48°34' W 126°39'1 9.7
2017-Oct-07 20:00N 48°34' W 126°38'5 9.1
2017-Oct-07 19:28N 48°34' W 126°31'5 9.0
2017-Oct-07 18:57N 48°34' W 126°24'4 9.4
2017-Oct-07 18:30N 48°33' W 126°17'5 9.3
2017-Oct-07 17:59N 48°33' W 126°10'5 9.9
2017-Oct-07 17:29N 48°33' W 126°03'5 9.9
2017-Oct-07 17:01N 48°32' W 125°55'5 9.9
2017-Oct-07 16:31N 48°32' W 125°48'5 9.8
2017-Oct-07 16:00N 48°32' W 125°41'5 9.9
2017-Oct-07 15:30N 48°32' W 125°33'5 9.6
2017-Oct-07 15:01N 48°31' W 125°26'5 9.9
2017-Oct-07 14:30N 48°31' W 125°18'510.1
2017-Oct-07 14:00N 48°31' W 125°11'510.7
2017-Oct-07 13:30N 48°31' W 125°03'611.0
2017-Oct-07 13:00N 48°31' W 124°54'510.7
2017-Oct-07 12:30N 48°30' W 124°46'510.5
2017-Oct-07 12:00N 48°29' W 124°39'510.3
2017-Oct-07 11:31N 48°27' W 124°32'510.1
2017-Oct-07 11:00N 48°25' W 124°25'510.1
2017-Oct-07 10:30N 48°23' W 124°17'510.1
2017-Oct-07 10:00N 48°22' W 124°10'610.3
2017-Oct-07 09:28N 48°20' W 124°03'510.8
2017-Oct-07 09:00N 48°17' W 123°56'711.4
2017-Oct-07 08:24N 48°16' W 123°45'511.9
2017-Oct-07 08:00N 48°16' W 123°39'611.3
2017-Oct-07 07:31N 48°15' W 123°30'611.4
2017-Oct-07 07:00N 48°11' W 123°24'4 8.2
2017-Oct-07 06:30N 48°09' W 123°18'714.0
2017-Oct-07 06:00N 48°12' W 123°09'713.8
2017-Oct-07 05:29N 48°12' W 122°58'715.0
2017-Oct-07 05:00N 48°12' W 122°47'915.8
2017-Oct-07 04:26N 48°05' W 122°38'716.4
2017-Oct-07 04:00N 47°58' W 122°35'714.0
2017-Oct-07 03:31N 47°53' W 122°28'714.2
2017-Oct-07 03:00N 47°46' W 122°26'714.2
2017-Oct-07 02:30N 47°39' W 122°27'713.3
2017-Oct-07 02:00N 47°32' W 122°28'713.8
2017-Oct-07 01:30N 47°26' W 122°31'612.6
2017-Oct-07 01:00N 47°20' W 122°32'3 5.1
2017-Oct-07 00:30N 47°18' W 122°29'0 0.7
2017-Oct-07 00:00N 47°18' W 122°29'0 0.3
2017-Oct-06 23:30N 47°18' W 122°29'0 0.2
2017-Oct-06 23:00N 47°17' W 122°29'2 4.0
2017-Oct-06 22:30N 47°16' W 122°27'0 0.2
2017-Oct-06 22:00N 47°16' W 122°27'0 0.0
2017-Oct-06 21:30N 47°16' W 122°27'0 0.0
2017-Oct-06 21:00N 47°16' W 122°27'0 0.1
2017-Oct-06 20:24N 47°16' W 122°27'0 0.0
2017-Oct-06 20:00N 47°16' W 122°27'0 0.0
2017-Oct-06 19:27N 47°16' W 122°27'0 0.0
2017-Oct-06 18:57N 47°16' W 122°27'0 0.0
2017-Oct-06 18:30N 47°16' W 122°27'0 0.0
2017-Oct-06 17:57N 47°16' W 122°27'0 0.0
2017-Oct-06 17:30N 47°16' W 122°27'0 0.0
2017-Oct-06 17:00N 47°16' W 122°27'0 0.0
2017-Oct-06 16:30N 47°16' W 122°27'0 0.0
2017-Oct-06 15:15N 47°16' W 122°27'0 0.0
2017-Oct-06 15:00N 47°16' W 122°27'0 0.0
2017-Oct-06 14:30N 47°16' W 122°27'0 0.0
2017-Oct-06 14:00N 47°16' W 122°27'0 0.0
2017-Oct-06 13:30N 47°16' W 122°27'0 0.0
2017-Oct-06 13:00N 47°16' W 122°27'0 0.0
2017-Oct-06 12:30N 47°16' W 122°27'0 0.0
2017-Oct-06 12:00N 47°16' W 122°27'0 0.0
2017-Oct-06 11:30N 47°16' W 122°27'0 0.0
2017-Oct-06 11:00N 47°16' W 122°27'0 0.0
2017-Oct-06 10:30N 47°16' W 122°27'0 0.0
2017-Oct-06 10:00N 47°16' W 122°27'0 0.0
2017-Oct-06 09:30N 47°16' W 122°27'0 0.0
2017-Oct-06 09:00N 47°16' W 122°27'0 0.0
2017-Oct-06 08:30N 47°16' W 122°27'0 0.0
2017-Oct-06 08:00N 47°16' W 122°27'0 0.0
2017-Oct-06 07:30N 47°16' W 122°27'0 0.0
2017-Oct-06 07:00N 47°16' W 122°27'0 0.0
2017-Oct-06 06:30N 47°16' W 122°27'0 0.0
2017-Oct-06 05:57N 47°16' W 122°27'0 0.0
2017-Oct-06 05:30N 47°16' W 122°27'0 0.0
2017-Oct-06 05:00N 47°16' W 122°27'0 0.0
2017-Oct-06 04:30N 47°16' W 122°27'0 0.0
2017-Oct-06 04:00N 47°16' W 122°27'0 0.0
2017-Oct-06 02:27N 47°16' W 122°27'0 0.0
2017-Oct-06 02:00N 47°16' W 122°27'0 0.0
2017-Oct-06 01:30N 47°16' W 122°27'0 0.0
2017-Oct-06 01:00N 47°16' W 122°27'0 0.0
2017-Oct-06 00:30N 47°16' W 122°27'0 0.0
2017-Oct-06 00:00N 47°16' W 122°27'0 0.1
2017-Oct-05 23:27N 47°16' W 122°27'0 0.0
2017-Oct-05 23:00N 47°16' W 122°27'0 0.0
2017-Oct-05 22:30N 47°16' W 122°27'0 0.0
2017-Oct-05 22:00N 47°16' W 122°27'0 0.0
2017-Oct-05 21:30N 47°16' W 122°27'0 0.0
2017-Oct-05 21:00N 47°16' W 122°27'0 0.0
2017-Oct-05 20:30N 47°16' W 122°27'0 0.0
2017-Oct-05 20:00N 47°16' W 122°27'0 0.0
2017-Oct-05 19:30N 47°16' W 122°27'0 0.0
2017-Oct-05 19:00N 47°16' W 122°27'0 0.0
2017-Oct-05 18:30N 47°16' W 122°27'0 0.0
2017-Oct-05 18:00N 47°16' W 122°27'0 0.0
2017-Oct-05 17:30N 47°16' W 122°27'0 0.0
2017-Oct-05 17:00N 47°16' W 122°27'0 0.0
2017-Oct-05 15:30N 47°16' W 122°27'0 0.1
2017-Oct-05 15:00N 47°16' W 122°27'0 0.1
2017-Oct-05 14:30N 47°16' W 122°27'0 0.0
2017-Oct-05 14:00N 47°16' W 122°27'0 0.0
2017-Oct-05 13:30N 47°16' W 122°27'0 0.0
2017-Oct-05 13:00N 47°16' W 122°27'0 0.0
2017-Oct-05 12:30N 47°16' W 122°27'0 0.0
2017-Oct-05 12:00N 47°16' W 122°27'0 0.0
2017-Oct-05 11:30N 47°16' W 122°27'0 0.0
2017-Oct-05 11:00N 47°16' W 122°27'0 0.0
2017-Oct-05 10:30N 47°16' W 122°27'0 0.1
2017-Oct-05 10:00N 47°16' W 122°27'0 0.0
2017-Oct-05 09:24N 47°16' W 122°27'0 0.0
2017-Oct-05 09:00N 47°16' W 122°27'0 0.0
2017-Oct-05 08:27N 47°16' W 122°27'0 0.0
2017-Oct-05 08:00N 47°16' W 122°27'0 0.0
2017-Oct-05 07:30N 47°16' W 122°27'0 0.0
2017-Oct-05 07:00N 47°16' W 122°27'0 0.0
2017-Oct-05 06:24N 47°16' W 122°27'0 0.0
2017-Oct-05 05:57N 47°16' W 122°27'0 0.0
2017-Oct-05 05:30N 47°16' W 122°27'0 0.0
2017-Oct-05 05:00N 47°16' W 122°27'0 0.0
2017-Oct-05 04:30N 47°16' W 122°27'0 0.0
2017-Oct-05 03:57N 47°16' W 122°27'0 0.0
2017-Oct-05 03:27N 47°16' W 122°27'0 0.0
2017-Oct-05 02:57N 47°16' W 122°27'0 0.0
2017-Oct-05 02:27N 47°16' W 122°27'0 0.0
2017-Oct-05 02:00N 47°16' W 122°27'0 0.0
2017-Oct-05 01:30N 47°16' W 122°27'0 0.0
2017-Oct-05 01:00N 47°16' W 122°27'0 0.0
2017-Oct-05 00:30N 47°16' W 122°27'0 0.0
2017-Oct-05 00:00N 47°16' W 122°27'0 0.0
2017-Oct-04 23:30N 47°16' W 122°27'0 0.0
2017-Oct-04 23:00N 47°16' W 122°27'0 0.0
2017-Oct-04 22:27N 47°16' W 122°27'0 0.0
2017-Oct-04 22:00N 47°16' W 122°27'0 0.0
2017-Oct-04 21:30N 47°16' W 122°27'0 0.0
2017-Oct-04 20:57N 47°16' W 122°27'0 0.0
2017-Oct-04 20:30N 47°16' W 122°27'0 0.0
2017-Oct-04 20:00N 47°16' W 122°27'0 0.0
2017-Oct-04 19:30N 47°16' W 122°27'0 0.0
2017-Oct-04 19:00N 47°16' W 122°27'0 0.0
2017-Oct-04 18:30N 47°16' W 122°27'0 0.0
2017-Oct-04 18:00N 47°16' W 122°27'0 0.0
2017-Oct-04 17:30N 47°16' W 122°27'0 0.0
2017-Oct-04 17:00N 47°16' W 122°27'0 0.0
2017-Oct-04 16:30N 47°16' W 122°27'0 0.0
2017-Oct-04 16:00N 47°16' W 122°27'0 0.0
2017-Oct-04 15:30N 47°16' W 122°27'0 0.0
2017-Oct-04 15:00N 47°16' W 122°27'0 0.0
2017-Oct-04 14:30N 47°16' W 122°27'0 0.0
2017-Oct-04 14:00N 47°16' W 122°27'0 0.0
2017-Oct-04 13:30N 47°16' W 122°27'0 0.0
2017-Oct-04 13:00N 47°16' W 122°27'0 0.0
2017-Oct-04 12:27N 47°16' W 122°27'0 0.0
2017-Oct-04 12:00N 47°16' W 122°27'0 0.0
2017-Oct-04 11:27N 47°16' W 122°27'0 0.0
2017-Oct-04 11:00N 47°16' W 122°27'0 0.0
2017-Oct-04 10:30N 47°16' W 122°27'0 0.0
2017-Oct-04 09:57N 47°16' W 122°27'0 0.0
2017-Oct-04 09:30N 47°16' W 122°27'0 0.0
2017-Oct-04 09:00N 47°16' W 122°27'0 0.0
2017-Oct-04 08:30N 47°16' W 122°27'0 0.0
2017-Oct-04 08:00N 47°16' W 122°27'0 0.0
2017-Oct-04 07:30N 47°16' W 122°27'0 0.0
2017-Oct-04 07:00N 47°16' W 122°27'0 0.0
2017-Oct-04 06:30N 47°16' W 122°27'0 0.0
2017-Oct-04 06:00N 47°16' W 122°27'0 0.0
2017-Oct-04 05:30N 47°16' W 122°27'0 0.0
2017-Oct-04 04:59N 47°16' W 122°27'0 0.0
2017-Oct-04 04:30N 47°16' W 122°27'0 0.0
2017-Oct-04 03:59N 47°16' W 122°27'0 0.0
2017-Oct-04 03:30N 47°16' W 122°27'0 0.0
2017-Oct-04 02:59N 47°16' W 122°27'0 0.0
2017-Oct-04 02:30N 47°16' W 122°27'0 0.0
2017-Oct-04 02:00N 47°16' W 122°27'0 0.0
2017-Oct-04 01:27N 47°16' W 122°27'0 0.0
2017-Oct-04 00:57N 47°16' W 122°27'0 0.0
2017-Oct-04 00:30N 47°16' W 122°27'0 0.0
2017-Oct-04 00:00N 47°16' W 122°27'0 0.0
2017-Oct-03 23:30N 47°16' W 122°27'0 0.0
2017-Oct-03 23:00N 47°16' W 122°27'0 0.0
2017-Oct-03 22:30N 47°16' W 122°27'0 0.0
2017-Oct-03 22:00N 47°16' W 122°27'0 0.0
2017-Oct-03 21:30N 47°16' W 122°27'0 0.0
2017-Oct-03 21:00N 47°16' W 122°27'0 0.0
2017-Oct-03 20:29N 47°16' W 122°27'0 0.0
2017-Oct-03 19:59N 47°16' W 122°27'0 0.0
2017-Oct-03 19:29N 47°16' W 122°27'0 0.0
2017-Oct-03 19:00N 47°16' W 122°27'0 0.0
2017-Oct-03 18:30N 47°16' W 122°27'0 0.0
2017-Oct-03 17:59N 47°16' W 122°27'0 0.0
2017-Oct-03 17:30N 47°16' W 122°27'0 0.0
2017-Oct-03 16:57N 47°16' W 122°27'0 0.0
2017-Oct-03 16:30N 47°16' W 122°27'0 0.0
2017-Oct-03 15:56N 47°16' W 122°27'0 0.0
2017-Oct-03 15:29N 47°16' W 122°27'0 0.0
2017-Oct-03 14:59N 47°16' W 122°27'0 0.0
2017-Oct-03 14:00N 47°16' W 122°27'0 0.0
2017-Oct-03 13:26N 47°16' W 122°27'0 0.0
2017-Oct-03 12:56N 47°16' W 122°27'0 0.0
2017-Oct-03 12:29N 47°16' W 122°27'0 0.0
2017-Oct-03 11:59N 47°16' W 122°27'0 0.0
2017-Oct-03 11:26N 47°16' W 122°27'0 0.0
2017-Oct-03 10:59N 47°16' W 122°27'0 0.0
2017-Oct-03 10:30N 47°16' W 122°27'0 0.0
2017-Oct-03 10:00N 47°16' W 122°27'0 0.0
2017-Oct-03 09:29N 47°16' W 122°27'0 0.0
2017-Oct-03 08:56N 47°16' W 122°27'0 0.0
2017-Oct-03 08:30N 47°16' W 122°27'0 0.0
2017-Oct-03 07:56N 47°16' W 122°27'0 0.0
2017-Oct-03 07:29N 47°16' W 122°27'0 0.0
2017-Oct-03 07:00N 47°16' W 122°27'0 0.0
2017-Oct-03 06:29N 47°16' W 122°27'0 0.0
2017-Oct-03 05:59N 47°16' W 122°27'0 0.0
2017-Oct-03 05:29N 47°16' W 122°27'0 0.0
2017-Oct-03 05:00N 47°16' W 122°27'0 0.0
2017-Oct-03 04:30N 47°16' W 122°27'0 0.0
2017-Oct-03 03:59N 47°16' W 122°27'0 0.0
2017-Oct-03 03:29N 47°16' W 122°27'0 0.0
2017-Oct-03 02:59N 47°16' W 122°27'0 0.0
2017-Oct-03 02:29N 47°16' W 122°27'0 0.0
2017-Oct-03 01:59N 47°16' W 122°27'0 0.0
2017-Oct-03 01:29N 47°16' W 122°27'0 0.0
2017-Oct-03 00:59N 47°16' W 122°27'0 0.0
2017-Oct-03 00:29N 47°16' W 122°27'0 0.0
2017-Oct-02 23:59N 47°16' W 122°27'0 0.0
2017-Oct-02 23:26N 47°16' W 122°27'0 0.0
2017-Oct-02 22:59N 47°16' W 122°27'0 0.0
2017-Oct-02 22:29N 47°16' W 122°27'0 0.0
2017-Oct-02 22:00N 47°16' W 122°27'0 0.0
2017-Oct-02 21:29N 47°16' W 122°27'0 0.0
2017-Oct-02 20:59N 47°16' W 122°27'0 0.0
2017-Oct-02 20:29N 47°16' W 122°27'0 0.0
2017-Oct-02 19:56N 47°16' W 122°27'0 0.0
2017-Oct-02 19:29N 47°16' W 122°27'0 0.0
2017-Oct-02 18:59N 47°16' W 122°27'0 0.0
2017-Oct-02 18:29N 47°16' W 122°27'0 0.0
2017-Oct-02 17:59N 47°16' W 122°27'0 0.0
2017-Oct-02 17:26N 47°16' W 122°27'0 0.0
2017-Oct-02 16:59N 47°16' W 122°27'0 0.0
2017-Oct-02 16:29N 47°16' W 122°27'0 0.0
2017-Oct-02 15:59N 47°16' W 122°27'0 0.0
2017-Oct-02 15:29N 47°16' W 122°27'0 0.0
2017-Oct-02 14:59N 47°16' W 122°27'0 0.0
2017-Oct-02 14:29N 47°16' W 122°27'0 0.0
2017-Oct-02 13:50N 47°16' W 122°27'0 0.0
2017-Oct-02 13:29N 47°16' W 122°27'0 0.0
2017-Oct-02 12:59N 47°16' W 122°27'0 0.0
2017-Oct-02 12:29N 47°16' W 122°27'0 0.0
2017-Oct-02 11:59N 47°16' W 122°27'0 0.0
2017-Oct-02 11:29N 47°16' W 122°27'0 0.1
2017-Oct-02 11:00N 47°16' W 122°27'0 0.7
2017-Oct-02 10:27N 47°16' W 122°27'0 0.0
2017-Oct-02 10:00N 47°16' W 122°27'0 0.0
2017-Oct-02 09:30N 47°16' W 122°27'0 0.0
2017-Oct-02 08:57N 47°16' W 122°27'0 0.1
2017-Oct-02 08:30N 47°16' W 122°27'0 0.3
2017-Oct-02 07:57N 47°16' W 122°26'0 0.1
2017-Oct-02 07:30N 47°16' W 122°26'0 0.3
2017-Oct-02 07:00N 47°16' W 122°27'0 0.2
2017-Oct-02 06:30N 47°16' W 122°27'0 0.0
2017-Oct-02 06:00N 47°16' W 122°27'0 0.2
2017-Oct-02 05:24N 47°16' W 122°27'0 0.1
2017-Oct-02 05:00N 47°16' W 122°27'0 0.1
2017-Oct-02 04:27N 47°16' W 122°27'0 0.0
2017-Oct-02 04:00N 47°16' W 122°27'0 0.1
2017-Oct-02 03:30N 47°16' W 122°26'0 0.0
2017-Oct-02 03:00N 47°16' W 122°26'0 0.0
2017-Oct-02 02:30N 47°16' W 122°26'0 0.0
2017-Oct-02 02:00N 47°16' W 122°26'0 0.1
2017-Oct-02 01:30N 47°16' W 122°27'0 0.1
2017-Oct-02 00:57N 47°16' W 122°27'0 0.0
2017-Oct-02 00:30N 47°16' W 122°27'0 0.1
2017-Oct-02 00:00N 47°16' W 122°27'0 0.0
2017-Oct-01 23:30N 47°16' W 122°27'0 0.1
2017-Oct-01 23:00N 47°16' W 122°27'0 0.1
2017-Oct-01 22:30N 47°16' W 122°27'0 0.0
2017-Oct-01 22:00N 47°16' W 122°27'0 0.0
2017-Oct-01 21:30N 47°16' W 122°27'0 0.1
2017-Oct-01 21:00N 47°16' W 122°27'0 0.1
2017-Oct-01 20:27N 47°16' W 122°27'0 0.1
2017-Oct-01 20:00N 47°16' W 122°27'0 0.2
2017-Oct-01 19:27N 47°16' W 122°27'0 0.2
2017-Oct-01 19:00N 47°16' W 122°27'0 0.1
2017-Oct-01 18:21N 47°16' W 122°27'0 0.1
2017-Oct-01 18:00N 47°16' W 122°27'0 0.3
2017-Oct-01 17:30N 47°16' W 122°27'0 0.2
2017-Oct-01 17:00N 47°16' W 122°27'0 0.0
2017-Oct-01 16:30N 47°16' W 122°27'0 0.0
2017-Oct-01 16:00N 47°16' W 122°27'0 0.0
2017-Oct-01 15:30N 47°16' W 122°27'0 0.1
2017-Oct-01 15:00N 47°16' W 122°27'0 0.0
2017-Oct-01 14:30N 47°16' W 122°27'0 0.1
2017-Oct-01 14:00N 47°16' W 122°27'0 0.1
2017-Oct-01 13:30N 47°16' W 122°27'0 0.0
2017-Oct-01 13:00N 47°16' W 122°27'0 0.1
2017-Oct-01 12:27N 47°16' W 122°27'0 0.0
2017-Oct-01 12:00N 47°16' W 122°27'0 0.0
2017-Oct-01 11:27N 47°16' W 122°27'0 0.1
2017-Oct-01 11:00N 47°16' W 122°27'0 0.0
2017-Oct-01 10:27N 47°16' W 122°27'0 0.0
2017-Oct-01 10:00N 47°16' W 122°27'0 0.0
2017-Oct-01 09:30N 47°16' W 122°27'0 0.2
2017-Oct-01 09:00N 47°16' W 122°26'0 0.2
2017-Oct-01 08:27N 47°16' W 122°26'0 0.2
2017-Oct-01 08:00N 47°16' W 122°26'0 0.1
2017-Oct-01 07:30N 47°16' W 122°26'0 0.2
2017-Oct-01 06:57N 47°16' W 122°27'0 0.2
2017-Oct-01 06:30N 47°16' W 122°27'0 0.1
2017-Oct-01 06:00N 47°16' W 122°27'0 0.1
2017-Oct-01 05:27N 47°16' W 122°27'0 0.1
2017-Oct-01 05:00N 47°16' W 122°27'0 0.0
2017-Oct-01 04:30N 47°16' W 122°27'0 0.1
2017-Oct-01 03:57N 47°16' W 122°27'0 0.1
2017-Oct-01 03:30N 47°16' W 122°27'0 0.0
2017-Oct-01 03:00N 47°16' W 122°27'0 0.0
2017-Sep-30 02:00N 47°16' W 122°26'0 0.2
2017-Sep-30 01:30N 47°16' W 122°26'0 0.0
2017-Sep-30 00:57N 47°16' W 122°26'0 0.0
2017-Sep-30 00:30N 47°16' W 122°26'0 0.0
2017-Sep-30 00:00N 47°16' W 122°26'0 0.1
2017-Sep-29 23:30N 47°16' W 122°26'0 0.1
2017-Sep-29 23:00N 47°16' W 122°26'0 0.1
2017-Sep-29 22:27N 47°16' W 122°27'0 0.0
2017-Sep-29 21:51N 47°16' W 122°27'0 0.1
2017-Sep-29 21:30N 47°16' W 122°27'0 0.0
2017-Sep-29 21:00N 47°16' W 122°27'0 0.0
2017-Sep-29 20:30N 47°16' W 122°27'0 0.0
2017-Sep-29 20:00N 47°16' W 122°27'0 0.0
2017-Sep-29 19:24N 47°16' W 122°27'0 0.0
2017-Sep-29 18:57N 47°16' W 122°27'0 0.1
2017-Sep-29 18:30N 47°16' W 122°27'0 0.0
2017-Sep-29 18:00N 47°16' W 122°27'0 0.1
2017-Sep-29 17:30N 47°16' W 122°27'0 0.2
2017-Sep-29 17:00N 47°16' W 122°27'0 0.1
2017-Sep-29 16:30N 47°16' W 122°27'0 0.1
2017-Sep-29 15:57N 47°16' W 122°27'0 0.2
2017-Sep-29 15:30N 47°16' W 122°27'0 0.2
2017-Sep-29 15:00N 47°16' W 122°27'0 0.1
2017-Sep-29 14:30N 47°16' W 122°27'0 0.1
2017-Sep-29 14:00N 47°16' W 122°27'0 0.1
2017-Sep-29 13:30N 47°16' W 122°27'0 0.1
2017-Sep-29 13:00N 47°16' W 122°27'0 0.0
2017-Sep-29 12:30N 47°16' W 122°27'0 0.1
2017-Sep-29 11:57N 47°16' W 122°27'0 0.0
2017-Sep-29 11:30N 47°16' W 122°27'0 0.0
2017-Sep-29 11:00N 47°16' W 122°27'0 0.1
2017-Sep-29 10:30N 47°16' W 122°27'0 0.1
2017-Sep-29 10:00N 47°16' W 122°27'0 0.0
2017-Sep-29 09:30N 47°16' W 122°27'0 0.0
2017-Sep-29 09:00N 47°16' W 122°27'0 0.1
2017-Sep-29 08:30N 47°16' W 122°27'0 0.0
2017-Sep-29 08:00N 47°16' W 122°27'0 0.1
2017-Sep-29 07:30N 47°16' W 122°27'0 0.1
2017-Sep-29 07:00N 47°16' W 122°27'0 0.3
2017-Sep-29 06:30N 47°16' W 122°27'0 0.1
2017-Sep-29 05:57N 47°16' W 122°26'0 0.0
2017-Sep-29 05:30N 47°16' W 122°26'0 0.1
2017-Sep-29 05:00N 47°16' W 122°26'0 0.2
2017-Sep-29 04:30N 47°16' W 122°26'0 0.0
2017-Sep-29 04:00N 47°16' W 122°26'0 0.1
2017-Sep-29 03:30N 47°16' W 122°26'0 0.1
2017-Sep-29 03:00N 47°16' W 122°26'0 0.1
2017-Sep-29 02:30N 47°16' W 122°26'0 0.1
2017-Sep-29 02:00N 47°16' W 122°26'0 0.1
2017-Sep-29 01:30N 47°16' W 122°26'0 0.1
2017-Sep-29 01:00N 47°16' W 122°26'0 0.0
2017-Sep-29 00:30N 47°16' W 122°26'0 0.0
2017-Sep-29 00:00N 47°16' W 122°26'0 0.0
2017-Sep-28 23:30N 47°16' W 122°26'0 0.1
2017-Sep-28 23:00N 47°16' W 122°27'0 0.1
2017-Sep-28 22:30N 47°16' W 122°27'0 0.1
2017-Sep-28 22:00N 47°16' W 122°27'0 0.1
2017-Sep-28 21:30N 47°16' W 122°27'0 0.0
2017-Sep-28 20:57N 47°16' W 122°27'0 0.0
2017-Sep-28 20:30N 47°16' W 122°27'0 0.3
2017-Sep-28 20:00N 47°16' W 122°27'0 0.2
2017-Sep-28 19:30N 47°16' W 122°27'0 0.0
2017-Sep-28 18:54N 47°16' W 122°27'0 0.1
2017-Sep-28 18:27N 47°16' W 122°27'0 0.1
2017-Sep-28 18:00N 47°16' W 122°27'0 0.1
2017-Sep-28 17:30N 47°16' W 122°27'0 0.0
2017-Sep-28 17:00N 47°16' W 122°27'0 0.0
2017-Sep-28 16:30N 47°16' W 122°27'0 0.2
2017-Sep-28 16:00N 47°16' W 122°27'0 0.3
2017-Sep-28 15:27N 47°16' W 122°27'0 0.2
2017-Sep-28 15:00N 47°16' W 122°27'0 0.1
2017-Sep-28 14:27N 47°16' W 122°26'0 0.1
2017-Sep-28 13:57N 47°16' W 122°26'0 0.1
2017-Sep-28 13:30N 47°16' W 122°26'0 0.2
2017-Sep-28 13:00N 47°16' W 122°26'0 0.2
2017-Sep-28 12:30N 47°16' W 122°27'0 0.1
2017-Sep-28 11:54N 47°16' W 122°27'0 0.0
2017-Sep-28 11:30N 47°16' W 122°27'0 0.1
2017-Sep-28 10:57N 47°16' W 122°27'0 0.0
2017-Sep-28 10:30N 47°16' W 122°27'0 0.1
2017-Sep-28 10:00N 47°16' W 122°26'0 0.0
2017-Sep-28 09:27N 47°16' W 122°26'0 0.1
2017-Sep-28 09:00N 47°16' W 122°26'0 0.1
2017-Sep-28 08:30N 47°16' W 122°26'0 0.1
2017-Sep-28 07:57N 47°16' W 122°26'0 0.0
2017-Sep-28 07:30N 47°16' W 122°26'0 0.0
2017-Sep-28 07:00N 47°16' W 122°26'0 0.0
2017-Sep-28 06:30N 47°16' W 122°26'0 0.0
2017-Sep-28 05:57N 47°16' W 122°26'0 0.2
2017-Sep-28 05:30N 47°16' W 122°26'0 0.2
2017-Sep-28 04:54N 47°16' W 122°26'0 0.1
2017-Sep-28 04:30N 47°16' W 122°26'0 0.0
2017-Sep-28 04:00N 47°16' W 122°26'0 0.1
2017-Sep-28 03:30N 47°16' W 122°26'0 0.1
2017-Sep-28 03:00N 47°16' W 122°26'0 0.2
2017-Sep-28 02:27N 47°16' W 122°26'0 0.1
2017-Sep-28 02:00N 47°16' W 122°26'0 0.0
2017-Sep-28 01:24N 47°16' W 122°26'0 0.0
2017-Sep-28 01:00N 47°16' W 122°26'0 0.1
2017-Sep-28 00:30N 47°16' W 122°26'0 0.1
2017-Sep-28 00:00N 47°16' W 122°26'0 0.0
2017-Sep-27 23:30N 47°16' W 122°26'0 0.0
2017-Sep-27 22:57N 47°16' W 122°26'0 0.0
2017-Sep-27 22:30N 47°16' W 122°26'0 0.0
2017-Sep-27 22:00N 47°16' W 122°26'0 0.3
2017-Sep-27 21:30N 47°16' W 122°27'0 0.2
2017-Sep-27 21:00N 47°16' W 122°27'0 0.0
2017-Sep-27 20:30N 47°16' W 122°27'  
Track history (hours):
 
Tides and Currents Weather Stations Pressure Air Temp Water Temp Dewpoint Dewpoint Depression Visibility Wind Speed Wind Dir Waves Ship Positions

Jaigarh

Last reported at 2017-Oct-07 20:04 UTC. Time now 2017-Oct-18 15:12 UTC.
Position N 48°34' W 126°39'.
Warning: this ship's position is 10 days out of date.

Length 229 m; draft 12.5 m.

Type: Cargo ship. MMSI: 356277000.

Date/timePositionNaut miles runAvg speedWind from/ knotsBaromVisibWave heightAir tempDewpointWater temp
2017-Oct-07 20:04N 48°34' W 126°39'1 9.7
2017-Oct-07 20:00N 48°34' W 126°38'5 9.1
2017-Oct-07 19:28N 48°34' W 126°31'5 9.0
2017-Oct-07 18:57N 48°34' W 126°24'4 9.4
2017-Oct-07 18:30N 48°33' W 126°17'5 9.3
2017-Oct-07 17:59N 48°33' W 126°10'5 9.9
2017-Oct-07 17:29N 48°33' W 126°03'5 9.9
2017-Oct-07 17:01N 48°32' W 125°55'5 9.9
2017-Oct-07 16:31N 48°32' W 125°48'5 9.8
2017-Oct-07 16:00N 48°32' W 125°41'5 9.9
2017-Oct-07 15:30N 48°32' W 125°33'5 9.6
2017-Oct-07 15:01N 48°31' W 125°26'5 9.9
2017-Oct-07 14:30N 48°31' W 125°18'510.1
2017-Oct-07 14:00N 48°31' W 125°11'510.7
2017-Oct-07 13:30N 48°31' W 125°03'611.0
2017-Oct-07 13:00N 48°31' W 124°54'510.7
2017-Oct-07 12:30N 48°30' W 124°46'510.5
2017-Oct-07 12:00N 48°29' W 124°39'510.3
2017-Oct-07 11:31N 48°27' W 124°32'510.1
2017-Oct-07 11:00N 48°25' W 124°25'510.1
2017-Oct-07 10:30N 48°23' W 124°17'510.1
2017-Oct-07 10:00N 48°22' W 124°10'610.3
2017-Oct-07 09:28N 48°20' W 124°03'510.8
2017-Oct-07 09:00N 48°17' W 123°56'711.4
2017-Oct-07 08:24N 48°16' W 123°45'511.9
2017-Oct-07 08:00N 48°16' W 123°39'611.3
2017-Oct-07 07:31N 48°15' W 123°30'611.4
2017-Oct-07 07:00N 48°11' W 123°24'4 8.2
2017-Oct-07 06:30N 48°09' W 123°18'714.0
2017-Oct-07 06:00N 48°12' W 123°09'713.8
2017-Oct-07 05:29N 48°12' W 122°58'715.0
2017-Oct-07 05:00N 48°12' W 122°47'915.8
2017-Oct-07 04:26N 48°05' W 122°38'716.4
2017-Oct-07 04:00N 47°58' W 122°35'714.0
2017-Oct-07 03:31N 47°53' W 122°28'714.2
2017-Oct-07 03:00N 47°46' W 122°26'714.2
2017-Oct-07 02:30N 47°39' W 122°27'713.3
2017-Oct-07 02:00N 47°32' W 122°28'713.8
2017-Oct-07 01:30N 47°26' W 122°31'612.6
2017-Oct-07 01:00N 47°20' W 122°32'3 5.1
2017-Oct-07 00:30N 47°18' W 122°29'0 0.7
2017-Oct-07 00:00N 47°18' W 122°29'0 0.3
2017-Oct-06 23:30N 47°18' W 122°29'0 0.2
2017-Oct-06 23:00N 47°17' W 122°29'2 4.0
2017-Oct-06 22:30N 47°16' W 122°27'0 0.2
2017-Oct-06 22:00N 47°16' W 122°27'0 0.0
2017-Oct-06 21:30N 47°16' W 122°27'0 0.0
2017-Oct-06 21:00N 47°16' W 122°27'0 0.1
2017-Oct-06 20:24N 47°16' W 122°27'0 0.0
2017-Oct-06 20:00N 47°16' W 122°27'0 0.0
2017-Oct-06 19:27N 47°16' W 122°27'0 0.0
2017-Oct-06 18:57N 47°16' W 122°27'0 0.0
2017-Oct-06 18:30N 47°16' W 122°27'0 0.0
2017-Oct-06 17:57N 47°16' W 122°27'0 0.0
2017-Oct-06 17:30N 47°16' W 122°27'0 0.0
2017-Oct-06 17:00N 47°16' W 122°27'0 0.0
2017-Oct-06 16:30N 47°16' W 122°27'0 0.0
2017-Oct-06 15:15N 47°16' W 122°27'0 0.0
2017-Oct-06 15:00N 47°16' W 122°27'0 0.0
2017-Oct-06 14:30N 47°16' W 122°27'0 0.0
2017-Oct-06 14:00N 47°16' W 122°27'0 0.0
2017-Oct-06 13:30N 47°16' W 122°27'0 0.0
2017-Oct-06 13:00N 47°16' W 122°27'0 0.0
2017-Oct-06 12:30N 47°16' W 122°27'0 0.0
2017-Oct-06 12:00N 47°16' W 122°27'0 0.0
2017-Oct-06 11:30N 47°16' W 122°27'0 0.0
2017-Oct-06 11:00N 47°16' W 122°27'0 0.0
2017-Oct-06 10:30N 47°16' W 122°27'0 0.0
2017-Oct-06 10:00N 47°16' W 122°27'0 0.0
2017-Oct-06 09:30N 47°16' W 122°27'0 0.0
2017-Oct-06 09:00N 47°16' W 122°27'0 0.0
2017-Oct-06 08:30N 47°16' W 122°27'0 0.0
2017-Oct-06 08:00N 47°16' W 122°27'0 0.0
2017-Oct-06 07:30N 47°16' W 122°27'0 0.0
2017-Oct-06 07:00N 47°16' W 122°27'0 0.0
2017-Oct-06 06:30N 47°16' W 122°27'0 0.0
2017-Oct-06 05:57N 47°16' W 122°27'0 0.0
2017-Oct-06 05:30N 47°16' W 122°27'0 0.0
2017-Oct-06 05:00N 47°16' W 122°27'0 0.0
2017-Oct-06 04:30N 47°16' W 122°27'0 0.0
2017-Oct-06 04:00N 47°16' W 122°27'0 0.0
2017-Oct-06 02:27N 47°16' W 122°27'0 0.0
2017-Oct-06 02:00N 47°16' W 122°27'0 0.0
2017-Oct-06 01:30N 47°16' W 122°27'0 0.0
2017-Oct-06 01:00N 47°16' W 122°27'0 0.0
2017-Oct-06 00:30N 47°16' W 122°27'0 0.0
2017-Oct-06 00:00N 47°16' W 122°27'0 0.1
2017-Oct-05 23:27N 47°16' W 122°27'0 0.0
2017-Oct-05 23:00N 47°16' W 122°27'0 0.0
2017-Oct-05 22:30N 47°16' W 122°27'0 0.0
2017-Oct-05 22:00N 47°16' W 122°27'0 0.0
2017-Oct-05 21:30N 47°16' W 122°27'0 0.0
2017-Oct-05 21:00N 47°16' W 122°27'0 0.0
2017-Oct-05 20:30N 47°16' W 122°27'0 0.0
2017-Oct-05 20:00N 47°16' W 122°27'0 0.0
2017-Oct-05 19:30N 47°16' W 122°27'0 0.0
2017-Oct-05 19:00N 47°16' W 122°27'0 0.0
2017-Oct-05 18:30N 47°16' W 122°27'0 0.0
2017-Oct-05 18:00N 47°16' W 122°27'0 0.0
2017-Oct-05 17:30N 47°16' W 122°27'0 0.0
2017-Oct-05 17:00N 47°16' W 122°27'0 0.0
2017-Oct-05 15:30N 47°16' W 122°27'0 0.1
2017-Oct-05 15:00N 47°16' W 122°27'0 0.1
2017-Oct-05 14:30N 47°16' W 122°27'0 0.0
2017-Oct-05 14:00N 47°16' W 122°27'0 0.0
2017-Oct-05 13:30N 47°16' W 122°27'0 0.0
2017-Oct-05 13:00N 47°16' W 122°27'0 0.0
2017-Oct-05 12:30N 47°16' W 122°27'0 0.0
2017-Oct-05 12:00N 47°16' W 122°27'0 0.0
2017-Oct-05 11:30N 47°16' W 122°27'0 0.0
2017-Oct-05 11:00N 47°16' W 122°27'0 0.0
2017-Oct-05 10:30N 47°16' W 122°27'0 0.1
2017-Oct-05 10:00N 47°16' W 122°27'0 0.0
2017-Oct-05 09:24N 47°16' W 122°27'0 0.0
2017-Oct-05 09:00N 47°16' W 122°27'0 0.0
2017-Oct-05 08:27N 47°16' W 122°27'0 0.0
2017-Oct-05 08:00N 47°16' W 122°27'0 0.0
2017-Oct-05 07:30N 47°16' W 122°27'0 0.0
2017-Oct-05 07:00N 47°16' W 122°27'0 0.0
2017-Oct-05 06:24N 47°16' W 122°27'0 0.0
2017-Oct-05 05:57N 47°16' W 122°27'0 0.0
2017-Oct-05 05:30N 47°16' W 122°27'0 0.0
2017-Oct-05 05:00N 47°16' W 122°27'0 0.0
2017-Oct-05 04:30N 47°16' W 122°27'0 0.0
2017-Oct-05 03:57N 47°16' W 122°27'0 0.0
2017-Oct-05 03:27N 47°16' W 122°27'0 0.0
2017-Oct-05 02:57N 47°16' W 122°27'0 0.0
2017-Oct-05 02:27N 47°16' W 122°27'0 0.0
2017-Oct-05 02:00N 47°16' W 122°27'0 0.0
2017-Oct-05 01:30N 47°16' W 122°27'0 0.0
2017-Oct-05 01:00N 47°16' W 122°27'0 0.0
2017-Oct-05 00:30N 47°16' W 122°27'0 0.0
2017-Oct-05 00:00N 47°16' W 122°27'0 0.0
2017-Oct-04 23:30N 47°16' W 122°27'0 0.0
2017-Oct-04 23:00N 47°16' W 122°27'0 0.0
2017-Oct-04 22:27N 47°16' W 122°27'0 0.0
2017-Oct-04 22:00N 47°16' W 122°27'0 0.0
2017-Oct-04 21:30N 47°16' W 122°27'0 0.0
2017-Oct-04 20:57N 47°16' W 122°27'0 0.0
2017-Oct-04 20:30N 47°16' W 122°27'0 0.0
2017-Oct-04 20:00N 47°16' W 122°27'0 0.0
2017-Oct-04 19:30N 47°16' W 122°27'0 0.0
2017-Oct-04 19:00N 47°16' W 122°27'0 0.0
2017-Oct-04 18:30N 47°16' W 122°27'0 0.0
2017-Oct-04 18:00N 47°16' W 122°27'0 0.0
2017-Oct-04 17:30N 47°16' W 122°27'0 0.0
2017-Oct-04 17:00N 47°16' W 122°27'0 0.0
2017-Oct-04 16:30N 47°16' W 122°27'0 0.0
2017-Oct-04 16:00N 47°16' W 122°27'0 0.0
2017-Oct-04 15:30N 47°16' W 122°27'0 0.0
2017-Oct-04 15:00N 47°16' W 122°27'0 0.0
2017-Oct-04 14:30N 47°16' W 122°27'0 0.0
2017-Oct-04 14:00N 47°16' W 122°27'0 0.0
2017-Oct-04 13:30N 47°16' W 122°27'0 0.0
2017-Oct-04 13:00N 47°16' W 122°27'0 0.0
2017-Oct-04 12:27N 47°16' W 122°27'0 0.0
2017-Oct-04 12:00N 47°16' W 122°27'0 0.0
2017-Oct-04 11:27N 47°16' W 122°27'0 0.0
2017-Oct-04 11:00N 47°16' W 122°27'0 0.0
2017-Oct-04 10:30N 47°16' W 122°27'0 0.0
2017-Oct-04 09:57N 47°16' W 122°27'0 0.0
2017-Oct-04 09:30N 47°16' W 122°27'0 0.0
2017-Oct-04 09:00N 47°16' W 122°27'0 0.0
2017-Oct-04 08:30N 47°16' W 122°27'0 0.0
2017-Oct-04 08:00N 47°16' W 122°27'0 0.0
2017-Oct-04 07:30N 47°16' W 122°27'0 0.0
2017-Oct-04 07:00N 47°16' W 122°27'0 0.0
2017-Oct-04 06:30N 47°16' W 122°27'0 0.0
2017-Oct-04 06:00N 47°16' W 122°27'0 0.0
2017-Oct-04 05:30N 47°16' W 122°27'0 0.0
2017-Oct-04 04:59N 47°16' W 122°27'0 0.0
2017-Oct-04 04:30N 47°16' W 122°27'0 0.0
2017-Oct-04 03:59N 47°16' W 122°27'0 0.0
2017-Oct-04 03:30N 47°16' W 122°27'0 0.0
2017-Oct-04 02:59N 47°16' W 122°27'0 0.0
2017-Oct-04 02:30N 47°16' W 122°27'0 0.0
2017-Oct-04 02:00N 47°16' W 122°27'0 0.0
2017-Oct-04 01:27N 47°16' W 122°27'0 0.0
2017-Oct-04 00:57N 47°16' W 122°27'0 0.0
2017-Oct-04 00:30N 47°16' W 122°27'0 0.0
2017-Oct-04 00:00N 47°16' W 122°27'0 0.0
2017-Oct-03 23:30N 47°16' W 122°27'0 0.0
2017-Oct-03 23:00N 47°16' W 122°27'0 0.0
2017-Oct-03 22:30N 47°16' W 122°27'0 0.0
2017-Oct-03 22:00N 47°16' W 122°27'0 0.0
2017-Oct-03 21:30N 47°16' W 122°27'0 0.0
2017-Oct-03 21:00N 47°16' W 122°27'0 0.0
2017-Oct-03 20:29N 47°16' W 122°27'0 0.0
2017-Oct-03 19:59N 47°16' W 122°27'0 0.0
2017-Oct-03 19:29N 47°16' W 122°27'0 0.0
2017-Oct-03 19:00N 47°16' W 122°27'0 0.0
2017-Oct-03 18:30N 47°16' W 122°27'0 0.0
2017-Oct-03 17:59N 47°16' W 122°27'0 0.0
2017-Oct-03 17:30N 47°16' W 122°27'0 0.0
2017-Oct-03 16:57N 47°16' W 122°27'0 0.0
2017-Oct-03 16:30N 47°16' W 122°27'0 0.0
2017-Oct-03 15:56N 47°16' W 122°27'0 0.0
2017-Oct-03 15:29N 47°16' W 122°27'0 0.0
2017-Oct-03 14:59N 47°16' W 122°27'0 0.0
2017-Oct-03 14:00N 47°16' W 122°27'0 0.0
2017-Oct-03 13:26N 47°16' W 122°27'0 0.0
2017-Oct-03 12:56N 47°16' W 122°27'0 0.0
2017-Oct-03 12:29N 47°16' W 122°27'0 0.0
2017-Oct-03 11:59N 47°16' W 122°27'0 0.0
2017-Oct-03 11:26N 47°16' W 122°27'0 0.0
2017-Oct-03 10:59N 47°16' W 122°27'0 0.0
2017-Oct-03 10:30N 47°16' W 122°27'0 0.0
2017-Oct-03 10:00N 47°16' W 122°27'0 0.0
2017-Oct-03 09:29N 47°16' W 122°27'0 0.0
2017-Oct-03 08:56N 47°16' W 122°27'0 0.0
2017-Oct-03 08:30N 47°16' W 122°27'0 0.0
2017-Oct-03 07:56N 47°16' W 122°27'0 0.0
2017-Oct-03 07:29N 47°16' W 122°27'0 0.0
2017-Oct-03 07:00N 47°16' W 122°27'0 0.0
2017-Oct-03 06:29N 47°16' W 122°27'0 0.0
2017-Oct-03 05:59N 47°16' W 122°27'0 0.0
2017-Oct-03 05:29N 47°16' W 122°27'0 0.0
2017-Oct-03 05:00N 47°16' W 122°27'0 0.0
2017-Oct-03 04:30N 47°16' W 122°27'0 0.0
2017-Oct-03 03:59N 47°16' W 122°27'0 0.0
2017-Oct-03 03:29N 47°16' W 122°27'0 0.0
2017-Oct-03 02:59N 47°16' W 122°27'0 0.0
2017-Oct-03 02:29N 47°16' W 122°27'0 0.0
2017-Oct-03 01:59N 47°16' W 122°27'0 0.0
2017-Oct-03 01:29N 47°16' W 122°27'0 0.0
2017-Oct-03 00:59N 47°16' W 122°27'0 0.0
2017-Oct-03 00:29N 47°16' W 122°27'0 0.0
2017-Oct-02 23:59N 47°16' W 122°27'0 0.0
2017-Oct-02 23:26N 47°16' W 122°27'0 0.0
2017-Oct-02 22:59N 47°16' W 122°27'0 0.0
2017-Oct-02 22:29N 47°16' W 122°27'0 0.0
2017-Oct-02 22:00N 47°16' W 122°27'0 0.0
2017-Oct-02 21:29N 47°16' W 122°27'0 0.0
2017-Oct-02 20:59N 47°16' W 122°27'0 0.0
2017-Oct-02 20:29N 47°16' W 122°27'0 0.0
2017-Oct-02 19:56N 47°16' W 122°27'0 0.0
2017-Oct-02 19:29N 47°16' W 122°27'0 0.0
2017-Oct-02 18:59N 47°16' W 122°27'0 0.0
2017-Oct-02 18:29N 47°16' W 122°27'0 0.0
2017-Oct-02 17:59N 47°16' W 122°27'0 0.0
2017-Oct-02 17:26N 47°16' W 122°27'0 0.0
2017-Oct-02 16:59N 47°16' W 122°27'0 0.0
2017-Oct-02 16:29N 47°16' W 122°27'0 0.0
2017-Oct-02 15:59N 47°16' W 122°27'0 0.0
2017-Oct-02 15:29N 47°16' W 122°27'0 0.0
2017-Oct-02 14:59N 47°16' W 122°27'0 0.0
2017-Oct-02 14:29N 47°16' W 122°27'0 0.0
2017-Oct-02 13:50N 47°16' W 122°27'0 0.0
2017-Oct-02 13:29N 47°16' W 122°27'0 0.0
2017-Oct-02 12:59N 47°16' W 122°27'0 0.0
2017-Oct-02 12:29N 47°16' W 122°27'0 0.0
2017-Oct-02 11:59N 47°16' W 122°27'0 0.0
2017-Oct-02 11:29N 47°16' W 122°27'0 0.1
2017-Oct-02 11:00N 47°16' W 122°27'0 0.7
2017-Oct-02 10:27N 47°16' W 122°27'0 0.0
2017-Oct-02 10:00N 47°16' W 122°27'0 0.0
2017-Oct-02 09:30N 47°16' W 122°27'0 0.0
2017-Oct-02 08:57N 47°16' W 122°27'0 0.1
2017-Oct-02 08:30N 47°16' W 122°27'0 0.3
2017-Oct-02 07:57N 47°16' W 122°26'0 0.1
2017-Oct-02 07:30N 47°16' W 122°26'0 0.3
2017-Oct-02 07:00N 47°16' W 122°27'0 0.2
2017-Oct-02 06:30N 47°16' W 122°27'0 0.0
2017-Oct-02 06:00N 47°16' W 122°27'0 0.2
2017-Oct-02 05:24N 47°16' W 122°27'0 0.1
2017-Oct-02 05:00N 47°16' W 122°27'0 0.1
2017-Oct-02 04:27N 47°16' W 122°27'0 0.0
2017-Oct-02 04:00N 47°16' W 122°27'0 0.1
2017-Oct-02 03:30N 47°16' W 122°26'0 0.0
2017-Oct-02 03:00N 47°16' W 122°26'0 0.0
2017-Oct-02 02:30N 47°16' W 122°26'0 0.0
2017-Oct-02 02:00N 47°16' W 122°26'0 0.1
2017-Oct-02 01:30N 47°16' W 122°27'0 0.1
2017-Oct-02 00:57N 47°16' W 122°27'0 0.0
2017-Oct-02 00:30N 47°16' W 122°27'0 0.1
2017-Oct-02 00:00N 47°16' W 122°27'0 0.0
2017-Oct-01 23:30N 47°16' W 122°27'0 0.1
2017-Oct-01 23:00N 47°16' W 122°27'0 0.1
2017-Oct-01 22:30N 47°16' W 122°27'0 0.0
2017-Oct-01 22:00N 47°16' W 122°27'0 0.0
2017-Oct-01 21:30N 47°16' W 122°27'0 0.1
2017-Oct-01 21:00N 47°16' W 122°27'0 0.1
2017-Oct-01 20:27N 47°16' W 122°27'0 0.1
2017-Oct-01 20:00N 47°16' W 122°27'0 0.2
2017-Oct-01 19:27N 47°16' W 122°27'0 0.2
2017-Oct-01 19:00N 47°16' W 122°27'0 0.1
2017-Oct-01 18:21N 47°16' W 122°27'0 0.1
2017-Oct-01 18:00N 47°16' W 122°27'0 0.3
2017-Oct-01 17:30N 47°16' W 122°27'0 0.2
2017-Oct-01 17:00N 47°16' W 122°27'0 0.0
2017-Oct-01 16:30N 47°16' W 122°27'0 0.0
2017-Oct-01 16:00N 47°16' W 122°27'0 0.0
2017-Oct-01 15:30N 47°16' W 122°27'0 0.1
2017-Oct-01 15:00N 47°16' W 122°27'0 0.0
2017-Oct-01 14:30N 47°16' W 122°27'0 0.1
2017-Oct-01 14:00N 47°16' W 122°27'0 0.1
2017-Oct-01 13:30N 47°16' W 122°27'0 0.0
2017-Oct-01 13:00N 47°16' W 122°27'0 0.1
2017-Oct-01 12:27N 47°16' W 122°27'0 0.0
2017-Oct-01 12:00N 47°16' W 122°27'0 0.0
2017-Oct-01 11:27N 47°16' W 122°27'0 0.1
2017-Oct-01 11:00N 47°16' W 122°27'0 0.0
2017-Oct-01 10:27N 47°16' W 122°27'0 0.0
2017-Oct-01 10:00N 47°16' W 122°27'0 0.0
2017-Oct-01 09:30N 47°16' W 122°27'0 0.2
2017-Oct-01 09:00N 47°16' W 122°26'0 0.2
2017-Oct-01 08:27N 47°16' W 122°26'0 0.2
2017-Oct-01 08:00N 47°16' W 122°26'0 0.1
2017-Oct-01 07:30N 47°16' W 122°26'0 0.2
2017-Oct-01 06:57N 47°16' W 122°27'0 0.2
2017-Oct-01 06:30N 47°16' W 122°27'0 0.1
2017-Oct-01 06:00N 47°16' W 122°27'0 0.1
2017-Oct-01 05:27N 47°16' W 122°27'0 0.1
2017-Oct-01 05:00N 47°16' W 122°27'0 0.0
2017-Oct-01 04:30N 47°16' W 122°27'0 0.1
2017-Oct-01 03:57N 47°16' W 122°27'0 0.1
2017-Oct-01 03:30N 47°16' W 122°27'0 0.0
2017-Oct-01 03:00N 47°16' W 122°27'0 0.0
2017-Sep-30 02:00N 47°16' W 122°26'0 0.2
2017-Sep-30 01:30N 47°16' W 122°26'0 0.0
2017-Sep-30 00:57N 47°16' W 122°26'0 0.0
2017-Sep-30 00:30N 47°16' W 122°26'0 0.0
2017-Sep-30 00:00N 47°16' W 122°26'0 0.1
2017-Sep-29 23:30N 47°16' W 122°26'0 0.1
2017-Sep-29 23:00N 47°16' W 122°26'0 0.1
2017-Sep-29 22:27N 47°16' W 122°27'0 0.0
2017-Sep-29 21:51N 47°16' W 122°27'0 0.1
2017-Sep-29 21:30N 47°16' W 122°27'0 0.0
2017-Sep-29 21:00N 47°16' W 122°27'0 0.0
2017-Sep-29 20:30N 47°16' W 122°27'0 0.0
2017-Sep-29 20:00N 47°16' W 122°27'0 0.0
2017-Sep-29 19:24N 47°16' W 122°27'0 0.0
2017-Sep-29 18:57N 47°16' W 122°27'0 0.1
2017-Sep-29 18:30N 47°16' W 122°27'0 0.0
2017-Sep-29 18:00N 47°16' W 122°27'0 0.1
2017-Sep-29 17:30N 47°16' W 122°27'0 0.2
2017-Sep-29 17:00N 47°16' W 122°27'0 0.1
2017-Sep-29 16:30N 47°16' W 122°27'0 0.1
2017-Sep-29 15:57N 47°16' W 122°27'0 0.2
2017-Sep-29 15:30N 47°16' W 122°27'0 0.2
2017-Sep-29 15:00N 47°16' W 122°27'0 0.1
2017-Sep-29 14:30N 47°16' W 122°27'0 0.1
2017-Sep-29 14:00N 47°16' W 122°27'0 0.1
2017-Sep-29 13:30N 47°16' W 122°27'0 0.1
2017-Sep-29 13:00N 47°16' W 122°27'0 0.0
2017-Sep-29 12:30N 47°16' W 122°27'0 0.1
2017-Sep-29 11:57N 47°16' W 122°27'0 0.0
2017-Sep-29 11:30N 47°16' W 122°27'0 0.0
2017-Sep-29 11:00N 47°16' W 122°27'0 0.1
2017-Sep-29 10:30N 47°16' W 122°27'0 0.1
2017-Sep-29 10:00N 47°16' W 122°27'0 0.0
2017-Sep-29 09:30N 47°16' W 122°27'0 0.0
2017-Sep-29 09:00N 47°16' W 122°27'0 0.1
2017-Sep-29 08:30N 47°16' W 122°27'0 0.0
2017-Sep-29 08:00N 47°16' W 122°27'0 0.1
2017-Sep-29 07:30N 47°16' W 122°27'0 0.1
2017-Sep-29 07:00N 47°16' W 122°27'0 0.3
2017-Sep-29 06:30N 47°16' W 122°27'0 0.1
2017-Sep-29 05:57N 47°16' W 122°26'0 0.0
2017-Sep-29 05:30N 47°16' W 122°26'0 0.1
2017-Sep-29 05:00N 47°16' W 122°26'0 0.2
2017-Sep-29 04:30N 47°16' W 122°26'0 0.0
2017-Sep-29 04:00N 47°16' W 122°26'0 0.1
2017-Sep-29 03:30N 47°16' W 122°26'0 0.1
2017-Sep-29 03:00N 47°16' W 122°26'0 0.1
2017-Sep-29 02:30N 47°16' W 122°26'0 0.1
2017-Sep-29 02:00N 47°16' W 122°26'0 0.1
2017-Sep-29 01:30N 47°16' W 122°26'0 0.1
2017-Sep-29 01:00N 47°16' W 122°26'0 0.0
2017-Sep-29 00:30N 47°16' W 122°26'0 0.0
2017-Sep-29 00:00N 47°16' W 122°26'0 0.0
2017-Sep-28 23:30N 47°16' W 122°26'0 0.1
2017-Sep-28 23:00N 47°16' W 122°27'0 0.1
2017-Sep-28 22:30N 47°16' W 122°27'0 0.1
2017-Sep-28 22:00N 47°16' W 122°27'0 0.1
2017-Sep-28 21:30N 47°16' W 122°27'0 0.0
2017-Sep-28 20:57N 47°16' W 122°27'0 0.0
2017-Sep-28 20:30N 47°16' W 122°27'0 0.3
2017-Sep-28 20:00N 47°16' W 122°27'0 0.2
2017-Sep-28 19:30N 47°16' W 122°27'0 0.0
2017-Sep-28 18:54N 47°16' W 122°27'0 0.1
2017-Sep-28 18:27N 47°16' W 122°27'0 0.1
2017-Sep-28 18:00N 47°16' W 122°27'0 0.1
2017-Sep-28 17:30N 47°16' W 122°27'0 0.0
2017-Sep-28 17:00N 47°16' W 122°27'0 0.0
2017-Sep-28 16:30N 47°16' W 122°27'0 0.2
2017-Sep-28 16:00N 47°16' W 122°27'0 0.3
2017-Sep-28 15:27N 47°16' W 122°27'0 0.2
2017-Sep-28 15:00N 47°16' W 122°27'0 0.1
2017-Sep-28 14:27N 47°16' W 122°26'0 0.1
2017-Sep-28 13:57N 47°16' W 122°26'0 0.1
2017-Sep-28 13:30N 47°16' W 122°26'0 0.2
2017-Sep-28 13:00N 47°16' W 122°26'0 0.2
2017-Sep-28 12:30N 47°16' W 122°27'0 0.1
2017-Sep-28 11:54N 47°16' W 122°27'0 0.0
2017-Sep-28 11:30N 47°16' W 122°27'0 0.1
2017-Sep-28 10:57N 47°16' W 122°27'0 0.0
2017-Sep-28 10:30N 47°16' W 122°27'0 0.1
2017-Sep-28 10:00N 47°16' W 122°26'0 0.0
2017-Sep-28 09:27N 47°16' W 122°26'0 0.1
2017-Sep-28 09:00N 47°16' W 122°26'0 0.1
2017-Sep-28 08:30N 47°16' W 122°26'0 0.1
2017-Sep-28 07:57N 47°16' W 122°26'0 0.0
2017-Sep-28 07:30N 47°16' W 122°26'0 0.0
2017-Sep-28 07:00N 47°16' W 122°26'0 0.0
2017-Sep-28 06:30N 47°16' W 122°26'0 0.0
2017-Sep-28 05:57N 47°16' W 122°26'0 0.2
2017-Sep-28 05:30N 47°16' W 122°26'0 0.2
2017-Sep-28 04:54N 47°16' W 122°26'0 0.1
2017-Sep-28 04:30N 47°16' W 122°26'0 0.0
2017-Sep-28 04:00N 47°16' W 122°26'0 0.1
2017-Sep-28 03:30N 47°16' W 122°26'0 0.1
2017-Sep-28 03:00N 47°16' W 122°26'0 0.2
2017-Sep-28 02:27N 47°16' W 122°26'0 0.1
2017-Sep-28 02:00N 47°16' W 122°26'0 0.0
2017-Sep-28 01:24N 47°16' W 122°26'0 0.0
2017-Sep-28 01:00N 47°16' W 122°26'0 0.1
2017-Sep-28 00:30N 47°16' W 122°26'0 0.1
2017-Sep-28 00:00N 47°16' W 122°26'0 0.0
2017-Sep-27 23:30N 47°16' W 122°26'0 0.0
2017-Sep-27 22:57N 47°16' W 122°26'0 0.0
2017-Sep-27 22:30N 47°16' W 122°26'0 0.0
2017-Sep-27 22:00N 47°16' W 122°26'0 0.3
2017-Sep-27 21:30N 47°16' W 122°27'0 0.2
2017-Sep-27 21:00N 47°16' W 122°27'0 0.0
2017-Sep-27 20:30N 47°16' W 122°27'  

Dump ship's entire track history